Airfield :
LOGIN :

Register | Disclaimer

   EN    FR    IT 

 










Legend :    VFR   Marginal VFR   IFR   Intensive IFR   Very Intensive IFR
Visi :
Ceiling :
>= 8 km
>= 3000ft
5 to 8 km
1000 to 3000 ft
1500m to 5 km
500 to 1000 ft
800 to 1500m
200 to 500 ft
< 800m
< 200 ft
Symbols :   Thunderstorms  Fog  Heavy snow  Heavy precipitations  Wind > 20 kt
SIGMETs :     Misc.  Thunderstorms  Icing  Turbulence  Mountain Waves  Volcanic Ashes






- Airport Elevation : 204 ft
- IATA code : AGF


LFBA - Agen

CURRENT METAR :
  • 301430Z AUTO 11005KT 9999 OVC012 07/05 Q1018 BECMG SCT012

EXPIRED METARs :
  • 301400Z AUTO 10005KT 080V140 9999 OVC011 06/05 Q1018 BECMG BKN009
  • 301330Z AUTO 10003KT 040V140 9999 OVC008 06/05 Q1018 NOSIG
  • 301300Z AUTO VRB02KT 9999 OVC008 06/05 Q1018 NOSIG
  • 301230Z AUTO VRB03KT 9999 OVC006 05/05 Q1019 NOSIG
  • 301200Z AUTO 02004KT 350V050 9999 OVC005 05/04 Q1019 NOSIG

TAF TAF LFBA
Valid from the 30 at 12:00 until the 30 at 21:00 UTC


301100Z 3012/3021 04004KT 9999 OVC006
BECMG 3013/3015 BKN009
BECMG 3016/3018 SCT012
TEMPO 3018/3021 3000 BR
PROB40
TEMPO 3019/3021 0400 FG VV///



MET'MAP, your aeronautical weather chart ! - Copyright ORBIFLY December 2007 - Disclaimer

ORBIFLY MET'MAP TEAM :

Programming & Development : Alexandra Zaïnal
Original concept : Baudouin d'Aumeries
Technical & hardware support : Manuel Goepfert
Assistance : Marc-Olivier Méhu




SOURCES & CREDITS :

   NOAA